createdAt,value
2019-05-07T00:01:14.235Z,5.17
2019-05-07T00:03:43.910Z,3.07
2019-05-07T00:06:13.838Z,4.47
2019-05-07T00:08:45.031Z,4.57
2019-05-07T00:11:14.910Z,5.67
2019-05-07T00:13:46.197Z,8.10
2019-05-07T00:16:16.040Z,3.67
2019-05-07T00:18:45.695Z,3.57
2019-05-07T00:21:15.382Z,3.50
2019-05-07T00:23:45.166Z,4.10
2019-05-07T00:26:14.906Z,5.27
2019-05-07T00:28:44.750Z,4.30
2019-05-07T00:31:17.402Z,5.00
2019-05-07T00:33:47.144Z,2.27
2019-05-07T00:36:26.507Z,3.80
2019-05-07T00:39:03.686Z,5.33
2019-05-07T00:41:42.682Z,3.50
2019-05-07T00:44:13.653Z,2.77
2019-05-07T00:46:43.436Z,6.73
2019-05-07T00:49:13.268Z,3.53
2019-05-07T00:51:43.147Z,3.30
2019-05-07T00:54:12.911Z,3.67
2019-05-07T00:56:42.993Z,3.27
2019-05-07T00:59:13.256Z,3.83
2019-05-07T01:01:43.374Z,3.40
2019-05-07T01:04:13.234Z,3.27
2019-05-07T01:06:42.913Z,11.77
2019-05-07T01:09:12.654Z,4.23
2019-05-07T01:11:43.018Z,7.77
2019-05-07T01:14:12.769Z,7.60
2019-05-07T01:16:42.476Z,3.90
2019-05-07T01:19:12.669Z,11.77
2019-05-07T01:21:43.249Z,7.23
2019-05-07T01:24:14.293Z,8.73
2019-05-07T01:26:44.186Z,4.70
2019-05-07T01:29:13.867Z,4.57
2019-05-07T01:31:52.577Z,4.67
2019-05-07T01:34:44.463Z,4.47
2019-05-07T01:37:14.291Z,4.97
2019-05-07T01:39:43.962Z,2.97
2019-05-07T01:42:13.636Z,7.23
2019-05-07T01:44:43.315Z,3.43
2019-05-07T01:47:13.231Z,2.60
2019-05-07T01:49:43.015Z,5.07
2019-05-07T01:52:13.431Z,6.67
2019-05-07T01:54:43.342Z,5.50
2019-05-07T01:57:13.327Z,2.27
2019-05-07T01:59:43.066Z,11.37
2019-05-07T02:02:25.010Z,4.10
2019-05-07T02:05:24.370Z,9.20
2019-05-07T02:07:58.153Z,3.37
2019-05-07T02:10:42.801Z,9.80
2019-05-07T02:13:13.640Z,3.67
2019-05-07T02:15:57.350Z,4.87
2019-05-07T02:18:14.807Z,3.20
2019-05-07T02:20:44.590Z,3.77
2019-05-07T02:23:14.266Z,3.57
2019-05-07T02:25:43.942Z,4.77
2019-05-07T02:28:13.739Z,4.33
2019-05-07T02:30:44.346Z,7.10
2019-05-07T02:33:14.489Z,4.90
2019-05-07T02:35:44.204Z,5.30
2019-05-07T02:38:27.396Z,9.43
2019-05-07T02:41:03.041Z,5.90
2019-05-07T02:43:33.748Z,5.30
2019-05-07T02:46:31.314Z,5.63
2019-05-07T02:49:04.071Z,3.90
2019-05-07T02:51:43.147Z,3.70
2019-05-07T02:54:20.079Z,7.47
2019-05-07T02:56:49.783Z,4.50
2019-05-07T02:59:23.047Z,4.07
2019-05-07T03:01:53.589Z,7.13
2019-05-07T03:04:24.942Z,3.53
2019-05-07T03:06:54.567Z,4.50
2019-05-07T03:09:24.517Z,4.90
2019-05-07T03:11:54.346Z,7.63
2019-05-07T03:14:24.090Z,5.13
2019-05-07T03:16:54.045Z,4.97
2019-05-07T03:19:25.398Z,11.70
2019-05-07T03:21:55.667Z,4.90
2019-05-07T03:24:56.787Z,2.57
2019-05-07T03:27:26.502Z,4.37
2019-05-07T03:30:16.065Z,4.90
2019-05-07T03:32:55.633Z,3.27
2019-05-07T03:35:37.131Z,6.57
2019-05-07T03:38:05.054Z,2.47
2019-05-07T03:40:35.995Z,6.70
2019-05-07T03:43:06.406Z,6.20
2019-05-07T03:45:55.482Z,3.13
2019-05-07T03:48:26.669Z,2.13
2019-05-07T03:50:56.375Z,4.03
2019-05-07T03:53:26.127Z,3.63
2019-05-07T03:55:55.871Z,2.80
2019-05-07T03:58:25.841Z,4.43
2019-05-07T04:00:55.526Z,2.20
2019-05-07T04:03:25.575Z,3.07
2019-05-07T04:05:55.422Z,5.70
2019-05-07T04:08:25.111Z,6.67
2019-05-07T04:10:54.778Z,4.77
2019-05-07T04:13:24.647Z,3.47
2019-05-07T04:15:54.416Z,4.67
2019-05-07T04:18:24.202Z,2.70
2019-05-07T04:20:54.257Z,5.10
2019-05-07T04:23:25.217Z,3.00
2019-05-07T04:26:13.408Z,4.20
2019-05-07T04:28:54.111Z,3.87
2019-05-07T04:31:24.053Z,5.83
2019-05-07T04:33:54.959Z,9.57
2019-05-07T04:36:27.381Z,6.77
2019-05-07T04:38:57.078Z,4.73
2019-05-07T04:41:26.754Z,2.43
2019-05-07T04:43:56.435Z,4.80
2019-05-07T04:46:26.126Z,4.27
2019-05-07T04:48:55.792Z,4.67
2019-05-07T04:51:35.618Z,4.27
2019-05-07T04:54:05.309Z,4.53
2019-05-07T04:56:35.007Z,6.20
2019-05-07T04:59:04.859Z,5.60
2019-05-07T05:01:38.277Z,4.30
2019-05-07T05:04:24.508Z,9.43
2019-05-07T05:06:39.422Z,6.03
2019-05-07T05:09:09.201Z,6.17
2019-05-07T05:11:39.039Z,2.67
2019-05-07T05:14:08.810Z,2.73
2019-05-07T05:16:38.566Z,8.30
2019-05-07T05:19:08.323Z,11.87
2019-05-07T05:21:53.913Z,8.03
2019-05-07T05:24:32.947Z,13.63
2019-05-07T05:27:02.983Z,9.30
2019-05-07T05:29:34.554Z,5.77
2019-05-07T05:32:04.362Z,8.40
2019-05-07T05:34:35.134Z,5.53
2019-05-07T05:37:05.094Z,4.30
2019-05-07T05:39:35.051Z,5.90
2019-05-07T05:42:13.183Z,4.73
2019-05-07T05:44:42.874Z,7.87
2019-05-07T05:47:12.563Z,9.17
2019-05-07T05:49:42.870Z,3.43
2019-05-07T05:52:22.049Z,11.63
2019-05-07T05:54:56.239Z,12.17
2019-05-07T05:57:43.474Z,8.87
2019-05-07T06:00:33.899Z,11.63
2019-05-07T06:03:22.730Z,6.73
2019-05-07T06:06:14.890Z,12.50
2019-05-07T06:09:09.838Z,7.20
2019-05-07T06:11:47.536Z,6.20
2019-05-07T06:14:26.902Z,4.77
2019-05-07T06:17:18.307Z,2.27
2019-05-07T06:19:58.531Z,10.50
2019-05-07T06:22:52.752Z,5.03
2019-05-07T06:25:24.876Z,2.77
2019-05-07T06:27:54.414Z,4.27
2019-05-07T06:30:24.273Z,2.70
2019-05-07T06:32:53.954Z,1.97
2019-05-07T06:35:23.643Z,8.70
2019-05-07T06:37:53.410Z,6.77
2019-05-07T06:40:57.485Z,1.73
2019-05-07T06:43:32.651Z,2.27
2019-05-07T06:46:03.080Z,4.07
2019-05-07T06:48:41.935Z,6.57
2019-05-07T06:51:04.311Z,1.60
2019-05-07T06:53:34.054Z,3.70
2019-05-07T06:56:04.287Z,8.40
2019-05-07T06:58:53.295Z,3.67
2019-05-07T07:01:42.385Z,2.17
2019-05-07T07:04:19.682Z,3.70
2019-05-07T07:07:27.256Z,7.13
2019-05-07T07:10:06.946Z,2.73
2019-05-07T07:12:37.019Z,4.23
2019-05-07T07:15:07.742Z,4.30
2019-05-07T07:17:37.571Z,6.63
2019-05-07T07:20:07.706Z,5.90
2019-05-07T07:22:37.429Z,6.53
2019-05-07T07:25:08.319Z,3.90
2019-05-07T07:27:38.099Z,2.90
2019-05-07T07:30:25.878Z,7.07
2019-05-07T07:32:56.646Z,3.20
2019-05-07T07:35:26.335Z,5.57
2019-05-07T07:37:56.090Z,6.47
2019-05-07T07:40:34.846Z,6.60
2019-05-07T07:43:06.985Z,4.27
2019-05-07T07:45:36.271Z,6.90
2019-05-07T07:48:06.020Z,7.47
2019-05-07T07:50:35.875Z,8.60
2019-05-07T07:53:05.678Z,8.47
2019-05-07T07:55:42.538Z,6.77
2019-05-07T07:58:31.640Z,4.13
2019-05-07T08:01:12.295Z,3.87
2019-05-07T08:03:42.125Z,4.43
2019-05-07T08:06:12.155Z,6.37
2019-05-07T08:08:42.465Z,6.17
2019-05-07T08:11:12.840Z,3.73
2019-05-07T08:13:42.638Z,5.37
2019-05-07T08:16:12.985Z,5.70
2019-05-07T08:18:43.706Z,4.47
2019-05-07T08:21:13.678Z,12.33
2019-05-07T08:23:43.353Z,10.97
2019-05-07T08:26:13.198Z,9.67
2019-05-07T08:28:42.971Z,5.03
2019-05-07T08:31:32.133Z,5.50
2019-05-07T08:34:25.376Z,4.73
2019-05-07T08:36:55.176Z,9.03
2019-05-07T08:39:25.319Z,6.20
2019-05-07T08:41:55.160Z,5.77
2019-05-07T08:44:29.054Z,6.23
2019-05-07T08:47:12.115Z,3.77
2019-05-07T08:49:43.349Z,5.57
2019-05-07T08:52:32.786Z,6.90
2019-05-07T08:55:02.570Z,4.63
2019-05-07T08:57:32.598Z,8.47
2019-05-07T09:00:04.651Z,6.50
2019-05-07T09:02:33.922Z,6.57
2019-05-07T09:05:03.856Z,5.60
2019-05-07T09:07:33.615Z,8.40
2019-05-07T09:10:03.598Z,6.87
2019-05-07T09:12:33.300Z,6.40
2019-05-07T09:15:03.106Z,7.87
2019-05-07T09:17:32.934Z,6.80
2019-05-07T09:20:02.979Z,6.70
2019-05-07T09:22:32.730Z,5.30
2019-05-07T09:25:03.219Z,8.13
2019-05-07T09:27:44.699Z,13.43
2019-05-07T09:30:22.587Z,5.77
2019-05-07T09:32:59.398Z,6.23
2019-05-07T09:35:39.653Z,7.20
2019-05-07T09:38:08.446Z,6.93
2019-05-07T09:40:38.141Z,9.80
2019-05-07T09:43:07.829Z,10.10
2019-05-07T09:45:37.578Z,7.37
2019-05-07T09:48:07.403Z,6.40
2019-05-07T09:50:37.181Z,10.80
2019-05-07T09:53:06.954Z,10.23
2019-05-07T09:55:36.734Z,6.37
2019-05-07T09:58:06.495Z,10.90
2019-05-07T10:00:36.538Z,15.33
2019-05-07T10:03:06.570Z,8.00
2019-05-07T10:05:36.470Z,11.93
2019-05-07T10:08:06.286Z,11.47
2019-05-07T10:10:36.162Z,9.97
2019-05-07T10:13:22.667Z,10.10
2019-05-07T10:15:52.720Z,9.70
2019-05-07T10:18:23.682Z,11.23
2019-05-07T10:20:53.523Z,10.27
2019-05-07T10:23:23.880Z,12.03
2019-05-07T10:25:55.124Z,10.40
2019-05-07T10:28:24.954Z,12.83
2019-05-07T10:30:55.337Z,11.73
2019-05-07T10:33:25.235Z,8.53
2019-05-07T10:35:55.016Z,12.00
2019-05-07T10:38:24.786Z,10.37
2019-05-07T10:40:54.618Z,15.67
2019-05-07T10:43:24.446Z,15.63
2019-05-07T10:46:14.019Z,11.83
2019-05-07T10:49:05.848Z,13.33
2019-05-07T10:51:35.758Z,11.27
2019-05-07T10:54:05.598Z,11.97
2019-05-07T10:56:35.306Z,12.17
2019-05-07T10:59:05.327Z,17.37
2019-05-07T11:01:44.362Z,13.17
2019-05-07T11:04:14.038Z,11.60
2019-05-07T11:06:43.802Z,15.17
2019-05-07T11:09:13.558Z,11.03
2019-05-07T11:11:43.294Z,10.50
2019-05-07T11:14:13.943Z,12.57
2019-05-07T11:16:52.053Z,14.70
2019-05-07T11:19:22.151Z,10.57
2019-05-07T11:21:52.205Z,11.47
2019-05-07T11:24:22.025Z,11.70
2019-05-07T11:26:53.153Z,13.17
2019-05-07T11:29:23.062Z,11.00
2019-05-07T11:31:52.826Z,8.23
2019-05-07T11:34:22.524Z,7.00
2019-05-07T11:36:52.464Z,10.00
2019-05-07T11:39:22.723Z,7.47
2019-05-07T11:42:24.002Z,8.90
2019-05-07T11:44:55.075Z,5.60
2019-05-07T11:47:27.918Z,7.47
2019-05-07T11:50:15.305Z,7.73
2019-05-07T11:52:51.751Z,4.77
2019-05-07T11:55:22.395Z,8.87
2019-05-07T11:57:53.682Z,7.53
2019-05-07T12:00:47.346Z,9.87
2019-05-07T12:03:17.174Z,5.07
2019-05-07T12:05:46.930Z,6.83
2019-05-07T12:08:16.688Z,6.17
2019-05-07T12:10:46.390Z,10.50
2019-05-07T12:13:16.176Z,8.40
2019-05-07T12:15:45.860Z,7.00
2019-05-07T12:18:15.698Z,8.90
2019-05-07T12:20:45.466Z,7.53
2019-05-07T12:23:15.134Z,5.57
2019-05-07T12:25:44.827Z,11.07
2019-05-07T12:28:14.869Z,6.67
2019-05-07T12:31:02.402Z,9.73
2019-05-07T12:33:54.222Z,6.53
2019-05-07T12:36:24.130Z,4.37
2019-05-07T12:38:53.994Z,5.53
2019-05-07T12:41:29.683Z,6.33
2019-05-07T12:44:04.770Z,3.97
2019-05-07T12:46:35.511Z,4.47
2019-05-07T12:49:06.605Z,4.20
2019-05-07T12:51:43.675Z,8.67
2019-05-07T12:54:29.301Z,6.97
2019-05-07T12:56:59.002Z,6.10
2019-05-07T12:59:28.970Z,5.97
2019-05-07T13:02:37.369Z,6.63
2019-05-07T13:04:54.428Z,5.33
2019-05-07T13:07:49.975Z,5.40
2019-05-07T13:10:21.792Z,7.70
2019-05-07T13:12:52.643Z,7.83
2019-05-07T13:15:27.616Z,6.57
2019-05-07T13:17:54.039Z,9.80
2019-05-07T13:20:24.023Z,13.53
2019-05-07T13:22:53.783Z,7.50
2019-05-07T13:25:28.342Z,9.47
2019-05-07T13:27:55.039Z,9.97
2019-05-07T13:30:24.862Z,7.73
2019-05-07T13:32:56.583Z,11.37
2019-05-07T13:35:26.695Z,11.27
2019-05-07T13:38:14.823Z,11.87
2019-05-07T13:40:58.971Z,11.20
2019-05-07T13:43:33.451Z,9.20
2019-05-07T13:46:12.112Z,13.03
2019-05-07T13:48:45.511Z,13.80
2019-05-07T13:51:14.739Z,13.10
2019-05-07T13:53:44.501Z,10.20
2019-05-07T13:56:14.635Z,10.33
2019-05-07T13:58:44.425Z,11.70
2019-05-07T14:01:27.913Z,11.13
2019-05-07T14:03:57.750Z,13.83
2019-05-07T14:06:39.482Z,10.43
2019-05-07T14:09:16.482Z,11.00
2019-05-07T14:11:46.322Z,11.40
2019-05-07T14:14:16.439Z,14.63
2019-05-07T14:16:46.299Z,13.80
2019-05-07T14:19:16.319Z,12.90
2019-05-07T14:21:46.039Z,13.30
2019-05-07T14:24:15.858Z,11.20
2019-05-07T14:26:45.702Z,11.27
2019-05-07T14:29:15.400Z,17.33
2019-05-07T14:31:51.746Z,15.40
2019-05-07T14:34:34.729Z,13.80
2019-05-07T14:37:08.150Z,13.00
2019-05-07T14:39:38.883Z,27.10
2019-05-07T14:42:12.820Z,11.63
2019-05-07T14:44:49.418Z,14.77
2019-05-07T14:47:22.085Z,16.73
2019-05-07T14:49:52.935Z,11.03
2019-05-07T14:52:32.262Z,18.13
2019-05-07T14:54:54.672Z,14.37
2019-05-07T14:57:25.588Z,13.00
2019-05-07T14:59:55.415Z,19.30
2019-05-07T15:02:25.174Z,13.47
2019-05-07T15:04:55.025Z,14.87
2019-05-07T15:07:24.851Z,12.23
2019-05-07T15:09:54.691Z,14.17
2019-05-07T15:12:24.587Z,16.63
2019-05-07T15:14:54.491Z,15.67
2019-05-07T15:17:33.703Z,16.50
2019-05-07T15:20:03.554Z,12.23
2019-05-07T15:22:58.483Z,14.50
2019-05-07T15:25:28.310Z,12.60
2019-05-07T15:27:58.142Z,13.13
2019-05-07T15:30:35.435Z,15.60
2019-05-07T15:33:05.282Z,13.70
2019-05-07T15:35:35.049Z,16.03
2019-05-07T15:38:04.895Z,14.30
2019-05-07T15:40:34.673Z,13.93
2019-05-07T15:43:04.499Z,15.40
2019-05-07T15:45:34.371Z,17.30
2019-05-07T15:48:04.329Z,15.13
2019-05-07T15:50:34.199Z,16.03
2019-05-07T15:53:12.261Z,12.03
2019-05-07T15:55:41.811Z,16.47
2019-05-07T15:58:12.086Z,19.40
2019-05-07T16:00:42.516Z,13.77
2019-05-07T16:03:18.243Z,18.40
2019-05-07T16:05:47.922Z,16.00
2019-05-07T16:08:18.591Z,16.17
2019-05-07T16:10:48.441Z,16.17
2019-05-07T16:13:23.162Z,13.20
2019-05-07T16:15:53.010Z,11.10
2019-05-07T16:18:27.662Z,14.67
2019-05-07T16:20:58.574Z,11.27
2019-05-07T16:23:28.579Z,13.77
2019-05-07T16:25:58.371Z,11.60
2019-05-07T16:28:28.049Z,7.17
2019-05-07T16:30:57.726Z,6.33
2019-05-07T16:33:27.612Z,4.53
2019-05-07T16:35:57.466Z,5.77
2019-05-07T16:38:27.183Z,3.97
2019-05-07T16:40:56.899Z,6.90
2019-05-07T16:43:26.575Z,6.47
2019-05-07T16:45:56.266Z,3.00
2019-05-07T16:48:26.014Z,3.40
2019-05-07T16:50:55.746Z,8.63
2019-05-07T16:53:29.924Z,7.97
2019-05-07T16:55:56.875Z,3.33
2019-05-07T16:58:42.620Z,4.57
2019-05-07T17:01:12.316Z,4.67
2019-05-07T17:03:52.319Z,4.13
2019-05-07T17:06:24.780Z,2.90
2019-05-07T17:09:02.432Z,6.97
2019-05-07T17:11:33.362Z,3.03
2019-05-07T17:14:03.205Z,3.67
2019-05-07T17:16:32.926Z,2.53
2019-05-07T17:19:02.747Z,3.33
2019-05-07T17:21:32.671Z,2.90
2019-05-07T17:24:02.730Z,3.07
2019-05-07T17:26:32.502Z,3.37
2019-05-07T17:29:02.692Z,4.63
2019-05-07T17:31:32.518Z,4.07
2019-05-07T17:34:02.384Z,4.00
2019-05-07T17:36:33.258Z,2.43
2019-05-07T17:39:03.541Z,3.90
2019-05-07T17:41:35.193Z,3.33
2019-05-07T17:44:05.023Z,4.97
2019-05-07T17:46:34.930Z,8.07
2019-05-07T17:49:04.780Z,3.67
2019-05-07T17:51:44.354Z,6.13
2019-05-07T17:54:15.026Z,3.80
2019-05-07T17:56:44.848Z,4.33
2019-05-07T17:59:14.618Z,5.27
2019-05-07T18:02:08.955Z,3.90
2019-05-07T18:04:50.569Z,4.80
2019-05-07T18:07:12.243Z,7.87
2019-05-07T18:09:42.554Z,7.00
2019-05-07T18:12:12.400Z,7.07
2019-05-07T18:14:42.514Z,4.43
2019-05-07T18:17:30.150Z,5.63
2019-05-07T18:19:59.903Z,4.67
2019-05-07T18:22:29.841Z,4.53
2019-05-07T18:25:01.671Z,6.07
2019-05-07T18:27:32.809Z,8.20
2019-05-07T18:30:02.905Z,6.73
2019-05-07T18:32:38.445Z,7.70
2019-05-07T18:35:08.495Z,12.23
2019-05-07T18:37:46.122Z,13.67
2019-05-07T18:40:15.919Z,13.13
2019-05-07T18:42:45.700Z,14.70
2019-05-07T18:45:15.727Z,11.03
2019-05-07T18:47:45.506Z,13.80
2019-05-07T18:50:15.347Z,10.40
2019-05-07T18:52:45.166Z,14.97
2019-05-07T18:55:15.131Z,10.50
2019-05-07T18:57:45.999Z,14.97
2019-05-07T19:00:22.088Z,12.47
2019-05-07T19:02:52.340Z,11.57
2019-05-07T19:05:22.331Z,18.03
2019-05-07T19:08:04.251Z,12.00
2019-05-07T19:10:23.905Z,9.87
2019-05-07T19:12:53.922Z,9.80
2019-05-07T19:15:23.799Z,11.63
2019-05-07T19:17:53.866Z,11.73
2019-05-07T19:20:23.727Z,10.73
2019-05-07T19:22:53.546Z,14.97
2019-05-07T19:25:23.422Z,14.50
2019-05-07T19:27:53.258Z,13.07
2019-05-07T19:30:23.978Z,12.43
2019-05-07T19:32:53.822Z,12.90
2019-05-07T19:35:23.590Z,10.13
2019-05-07T19:37:53.617Z,12.80
2019-05-07T19:40:23.416Z,12.63
2019-05-07T19:42:53.342Z,15.70
2019-05-07T19:45:24.500Z,11.07
2019-05-07T19:47:54.334Z,12.20
2019-05-07T19:50:24.051Z,9.37
2019-05-07T19:52:53.736Z,11.53
2019-05-07T19:55:23.414Z,14.13
2019-05-07T19:57:57.432Z,15.77
2019-05-07T20:00:27.594Z,12.33
2019-05-07T20:03:00.024Z,13.77
2019-05-07T20:05:32.153Z,11.53
2019-05-07T20:08:04.243Z,13.97
2019-05-07T20:10:42.195Z,11.43
2019-05-07T20:13:12.658Z,12.67
2019-05-07T20:15:46.757Z,16.27
2019-05-07T20:18:16.626Z,16.03
2019-05-07T20:20:46.419Z,15.13
2019-05-07T20:23:17.174Z,11.63
2019-05-07T20:25:47.067Z,17.20
2019-05-07T20:28:18.380Z,12.37
2019-05-07T20:30:48.139Z,12.83
2019-05-07T20:33:17.928Z,13.80
2019-05-07T20:35:47.624Z,13.43
2019-05-07T20:38:17.313Z,13.50
2019-05-07T20:40:47.018Z,14.90
2019-05-07T20:43:16.911Z,15.83
2019-05-07T20:45:46.775Z,10.90
2019-05-07T20:48:16.579Z,16.20
2019-05-07T20:50:46.341Z,12.97
2019-05-07T20:53:16.206Z,12.67
2019-05-07T20:55:54.623Z,11.30
2019-05-07T20:58:24.355Z,18.77
2019-05-07T21:00:54.139Z,21.57
2019-05-07T21:03:24.140Z,18.40
2019-05-07T21:05:54.066Z,14.13
2019-05-07T21:08:23.756Z,17.40
2019-05-07T21:10:53.865Z,14.30
2019-05-07T21:13:30.371Z,19.17
2019-05-07T21:15:56.237Z,14.97
2019-05-07T21:18:26.018Z,13.10
2019-05-07T21:20:55.687Z,14.17
2019-05-07T21:23:25.526Z,14.83
2019-05-07T21:25:55.379Z,14.10
2019-05-07T21:28:26.046Z,16.83
2019-05-07T21:30:55.878Z,15.43
2019-05-07T21:33:25.566Z,16.47
2019-05-07T21:35:55.275Z,17.53
2019-05-07T21:38:24.978Z,15.10
2019-05-07T21:40:54.754Z,17.57
2019-05-07T21:43:24.515Z,15.67
2019-05-07T21:45:54.214Z,17.53
2019-05-07T21:48:23.982Z,18.87
2019-05-07T21:50:54.460Z,18.10
2019-05-07T21:53:38.770Z,19.47
2019-05-07T21:56:20.059Z,18.63
2019-05-07T21:58:54.128Z,18.73
2019-05-07T22:01:33.557Z,18.50
2019-05-07T22:04:03.492Z,22.20
2019-05-07T22:06:33.179Z,15.57
2019-05-07T22:09:02.888Z,18.23
2019-05-07T22:11:34.358Z,20.13
2019-05-07T22:14:05.709Z,15.10
2019-05-07T22:16:35.504Z,17.23
2019-05-07T22:19:06.165Z,24.10
2019-05-07T22:21:35.966Z,17.47
2019-05-07T22:24:05.816Z,19.77
2019-05-07T22:26:35.590Z,17.93
2019-05-07T22:29:05.372Z,23.47
2019-05-07T22:31:54.207Z,20.87
2019-05-07T22:34:42.999Z,17.73
2019-05-07T22:37:14.515Z,18.90
2019-05-07T22:39:45.962Z,18.27
2019-05-07T22:42:17.362Z,20.07
2019-05-07T22:44:47.107Z,19.10
2019-05-07T22:47:22.445Z,23.00
2019-05-07T22:49:53.531Z,18.80
2019-05-07T22:52:23.049Z,19.63
2019-05-07T22:54:52.727Z,23.60
2019-05-07T22:57:42.016Z,24.37
2019-05-07T23:00:18.614Z,30.40
2019-05-07T23:02:48.398Z,29.97
2019-05-07T23:05:18.175Z,20.90
2019-05-07T23:07:48.478Z,23.87
2019-05-07T23:10:18.374Z,21.47
2019-05-07T23:12:48.161Z,23.17
2019-05-07T23:15:18.038Z,25.47
2019-05-07T23:17:48.711Z,24.20
2019-05-07T23:20:18.509Z,23.70
2019-05-07T23:22:48.190Z,23.27
2019-05-07T23:25:18.079Z,22.17
2019-05-07T23:27:47.766Z,19.07
2019-05-07T23:30:17.735Z,21.57
2019-05-07T23:32:47.579Z,20.80
2019-05-07T23:35:17.525Z,26.87
2019-05-07T23:37:47.346Z,28.47
2019-05-07T23:40:28.190Z,21.50
2019-05-07T23:43:02.400Z,19.77
2019-05-07T23:45:31.654Z,22.27
2019-05-07T23:48:02.762Z,19.63
2019-05-07T23:50:32.610Z,18.77
2019-05-07T23:53:02.369Z,23.13
2019-05-07T23:55:32.062Z,24.10
2019-05-07T23:58:03.125Z,23.83
